AirNav   Air Wisconsin Up To $57,000 Bonus
 
 1127 users online  

3PA3 DR2 Heliport
Fogelsville, Pennsylvania, USA

GOING TO FOGELSVILLE?


FAA INFORMATION EFFECTIVE 05 DECEMBER 2019

Location

FAA Identifier: 3PA3
Lat/Long: 40-36-09.2200N 075-38-34.9700W
40-36.153667N 075-38.582833W
40.6025611,-75.6430472
(estimated)
Elevation: 485 ft. / 148 m (estimated)
Time zone: UTC -5 (UTC -4 during Daylight Saving Time)
Zip code: 18051

Heliport Operations

Heliport use: Private use. Permission required prior to landing
Activation date: 11/2015
Control tower: no
ARTCC: NEW YORK CENTER
FSS: ALTOONA FLIGHT SERVICE STATION
Attendance: UNATTND
USE WITH PPR ONLY FROM OWNER.
Wind indicator: yes
Segmented circle: yes

Heliport Communications

WX AWOS-3 at XLL (7 nm E): 127.875 (610-231-3111)
WX ASOS at ABE (10 nm E): PHONE 610-266-3579
WX AWOS-3PT at 22N (14 nm NW): 119.350 (570-386-3423)
WX AWOS-3 at UKT (16 nm SE): 119.475 (215-538-7610)
WX ASOS at RDG (20 nm SW): PHONE 610-372-9863

Nearby radio navigation aids

VOR radial/distance  VOR name  Freq  Var
ETXr064/2.3EAST TEXAS VOR/DME110.2009W
FJCr239/11.4ALLENTOWN VORTAC117.5010W
PTWr360/23.1POTTSTOWN VORTAC116.5009W
BWZr264/39.2BROADWAY VOR/DME114.2011W
ARDr312/39.6YARDLEY VOR/DME108.2010W

 
NDB name  Hdg/Dist  Freq  Var  ID
AMBLER342/32.927512WING .. -. --.

Heliport Services

Runway Information

Helipad H1

Dimensions: 35 x 35 ft. / 11 x 11 m
Surface: turf
Operational restrictions: 35 FT CIRCLE, TOF&L.
Traffic pattern: leftleft

Heliport Ownership and Management from official FAA records

Ownership: Privately-owned
Owner: MICHAEL SELIG
2288 MULBERRYRD.
ALLENTOWN, PA 18051
Phone 610-360-3953

Heliport Operational Statistics

Aircraft based on the field: 1
Helicopters: 1
    

Additional Remarks

PPR.
FOR CD CTC ALLENTOWN APCH AT 800-728-6322

Instrument Procedures

There are no published instrument procedures at 3PA3.

Some nearby airports with instrument procedures:

KXLL - Allentown Queen City Municipal Airport (7 nm E)
KABE - Lehigh Valley International Airport (10 nm E)
22N - Jake Arner Memorial Airport (14 nm NW)
KUKT - Quakertown Airport (16 nm SE)
KRDG - Reading Regional Airport/Carl A Spaatz Field (20 nm SW)
 
Loc | Ops | Rwys | IFR | FBO | Links
Com | Nav | Svcs | Stats | Notes
Aerial photo
No photo
 
Airport distance calculator
Flying to DR2 Heliport? Find the distance to fly.

From to 3PA3

Sunrise and sunset
Times for 07-Dec-2019
 Local
(UTC-5)
 Zulu
(UTC)
Morning civil twilight06:4311:43
Sunrise07:1412:14
Sunset16:3421:34
Evening civil twilight17:0522:05

Current date and time
Zulu (UTC)  08-Dec-2019 02:28:07
Local (UTC-5)  07-Dec-2019 21:28:07
 
METAR
KXLL 
7nm E 
080215Z AUTO 00000KT 10SM CLR M02/M06 A3049 RMK AO2
KABE 
9nm E 
080151Z 00000KT 10SM CLR M01/M09 A3046 RMK AO2 SLP319 T10111094
K22N 
14nm NW 
080216Z AUTO 00000KT 10SM CLR A3048 RMK AO2
KUKT 
16nm SE 
080215Z AUTO 00000KT 10SM CLR M05/M07 A3046 RMK A01
TAF
KABE 
9nm E 
071720Z 0718/0818 33005KT P6SM SCT250 FM072300 VRB02KT P6SM FEW250 FM081600 16005KT P6SM SCT250
NOTAMs
Click for the latest NOTAMs
NOTAMs are issued by the DoD/FAA and will open in a separate window not controlled by AirNav.

 

 
 

Would you like to see your business listed on this page?

 If your business provides an interesting product or service to pilots, flight crews, aircraft, or users of the DR2 Heliport, you should consider listing it here.  To start the listing process, click on the button below
 
Add a business
 

Other Pages about DR2 Heliport

Update a link
 
Copyright © AirNav, LLC. All rights reserved. Privacy Policy  Contact